sensor_id;sensor_type;location;lat;lon;timestamp;P1;durP1;ratioP1;P2;durP2;ratioP2
49071;SDS011;52656;52.610;10.236;2023-08-07T00:02:39;5.95;;;3.25;;
49071;SDS011;52656;52.610;10.236;2023-08-07T00:07:31;5.55;;;3.15;;
49071;SDS011;52656;52.610;10.236;2023-08-07T00:09:56;7.45;;;4.20;;
49071;SDS011;52656;52.610;10.236;2023-08-07T00:12:21;7.00;;;3.47;;
49071;SDS011;52656;52.610;10.236;2023-08-07T00:14:47;7.45;;;4.07;;
49071;SDS011;52656;52.610;10.236;2023-08-07T00:17:15;8.32;;;4.00;;
49071;SDS011;52656;52.610;10.236;2023-08-07T00:19:40;6.93;;;3.15;;
49071;SDS011;52656;52.610;10.236;2023-08-07T00:22:06;6.13;;;3.42;;
49071;SDS011;52656;52.610;10.236;2023-08-07T00:26:56;5.53;;;3.30;;
49071;SDS011;52656;52.610;10.236;2023-08-07T00:31:46;6.13;;;3.60;;
49071;SDS011;52656;52.610;10.236;2023-08-07T00:36:37;3.97;;;2.87;;
49071;SDS011;52656;52.610;10.236;2023-08-07T00:41:28;4.47;;;2.40;;
49071;SDS011;52656;52.610;10.236;2023-08-07T00:46:19;8.27;;;3.30;;
49071;SDS011;52656;52.610;10.236;2023-08-07T00:51:10;6.65;;;3.05;;
49071;SDS011;52656;52.610;10.236;2023-08-07T00:53:37;7.50;;;3.17;;
49071;SDS011;52656;52.610;10.236;2023-08-07T00:56:04;5.07;;;2.70;;
49071;SDS011;52656;52.610;10.236;2023-08-07T00:58:30;6.72;;;3.42;;
49071;SDS011;52656;52.610;10.236;2023-08-07T01:03:21;5.30;;;3.00;;
49071;SDS011;52656;52.610;10.236;2023-08-07T01:08:12;4.87;;;2.67;;
49071;SDS011;52656;52.610;10.236;2023-08-07T01:13:24;5.38;;;2.60;;
49071;SDS011;52656;52.610;10.236;2023-08-07T01:15:55;6.13;;;3.30;;
49071;SDS011;52656;52.610;10.236;2023-08-07T01:18:27;6.00;;;3.22;;
49071;SDS011;52656;52.610;10.236;2023-08-07T01:20:55;6.05;;;2.92;;
49071;SDS011;52656;52.610;10.236;2023-08-07T01:25:46;6.13;;;3.10;;
49071;SDS011;52656;52.610;10.236;2023-08-07T01:30:42;7.32;;;3.55;;
49071;SDS011;52656;52.610;10.236;2023-08-07T01:35:43;6.78;;;3.28;;
49071;SDS011;52656;52.610;10.236;2023-08-07T01:38:11;5.72;;;3.22;;
49071;SDS011;52656;52.610;10.236;2023-08-07T01:40:38;6.50;;;3.35;;
49071;SDS011;52656;52.610;10.236;2023-08-07T01:43:04;6.32;;;3.20;;
49071;SDS011;52656;52.610;10.236;2023-08-07T01:47:55;5.72;;;3.70;;
49071;SDS011;52656;52.610;10.236;2023-08-07T01:52:47;6.32;;;3.58;;
49071;SDS011;52656;52.610;10.236;2023-08-07T01:57:41;8.18;;;3.70;;
49071;SDS011;52656;52.610;10.236;2023-08-07T02:02:33;18.00;;;3.53;;
49071;SDS011;52656;52.610;10.236;2023-08-07T02:07:24;7.00;;;3.83;;
49071;SDS011;52656;52.610;10.236;2023-08-07T02:12:15;8.67;;;4.47;;
49071;SDS011;52656;52.610;10.236;2023-08-07T02:17:05;5.13;;;3.10;;
49071;SDS011;52656;52.610;10.236;2023-08-07T02:19:31;4.07;;;3.10;;
49071;SDS011;52656;52.610;10.236;2023-08-07T02:24:22;8.68;;;3.20;;
49071;SDS011;52656;52.610;10.236;2023-08-07T02:26:47;7.28;;;3.97;;
49071;SDS011;52656;52.610;10.236;2023-08-07T02:31:38;7.37;;;3.17;;
49071;SDS011;52656;52.610;10.236;2023-08-07T02:36:28;6.50;;;3.90;;
49071;SDS011;52656;52.610;10.236;2023-08-07T02:41:19;5.43;;;3.37;;
49071;SDS011;52656;52.610;10.236;2023-08-07T02:46:09;6.87;;;3.60;;
49071;SDS011;52656;52.610;10.236;2023-08-07T02:50:59;7.20;;;4.25;;
49071;SDS011;52656;52.610;10.236;2023-08-07T02:55:50;6.25;;;3.83;;
49071;SDS011;52656;52.610;10.236;2023-08-07T03:00:40;10.60;;;4.17;;
49071;SDS011;52656;52.610;10.236;2023-08-07T03:05:31;6.10;;;4.10;;
49071;SDS011;52656;52.610;10.236;2023-08-07T03:10:21;8.52;;;3.90;;
49071;SDS011;52656;52.610;10.236;2023-08-07T03:15:12;8.20;;;4.03;;
49071;SDS011;52656;52.610;10.236;2023-08-07T03:20:03;6.53;;;4.00;;
49071;SDS011;52656;52.610;10.236;2023-08-07T03:24:54;6.50;;;3.78;;
49071;SDS011;52656;52.610;10.236;2023-08-07T03:29:44;6.30;;;3.47;;
49071;SDS011;52656;52.610;10.236;2023-08-07T03:34:35;7.63;;;4.27;;
49071;SDS011;52656;52.610;10.236;2023-08-07T03:39:26;8.73;;;5.18;;
49071;SDS011;52656;52.610;10.236;2023-08-07T03:44:16;6.38;;;4.00;;
49071;SDS011;52656;52.610;10.236;2023-08-07T03:46:42;8.70;;;4.63;;
49071;SDS011;52656;52.610;10.236;2023-08-07T03:49:07;6.63;;;4.00;;
49071;SDS011;52656;52.610;10.236;2023-08-07T03:53:58;8.73;;;4.07;;
49071;SDS011;52656;52.610;10.236;2023-08-07T03:58:48;7.18;;;4.38;;
49071;SDS011;52656;52.610;10.236;2023-08-07T04:01:15;10.88;;;4.95;;
49071;SDS011;52656;52.610;10.236;2023-08-07T04:06:05;7.03;;;4.05;;
49071;SDS011;52656;52.610;10.236;2023-08-07T04:08:31;8.32;;;4.40;;
49071;SDS011;52656;52.610;10.236;2023-08-07T04:13:30;8.18;;;4.40;;
49071;SDS011;52656;52.610;10.236;2023-08-07T04:18:22;9.13;;;4.55;;
49071;SDS011;52656;52.610;10.236;2023-08-07T04:23:17;7.28;;;4.70;;
49071;SDS011;52656;52.610;10.236;2023-08-07T04:28:08;6.82;;;4.50;;
49071;SDS011;52656;52.610;10.236;2023-08-07T04:30:34;8.98;;;5.03;;
49071;SDS011;52656;52.610;10.236;2023-08-07T04:35:24;8.10;;;4.60;;
49071;SDS011;52656;52.610;10.236;2023-08-07T04:40:15;11.03;;;4.77;;
49071;SDS011;52656;52.610;10.236;2023-08-07T04:45:05;8.07;;;4.68;;
49071;SDS011;52656;52.610;10.236;2023-08-07T04:49:56;8.40;;;5.20;;
49071;SDS011;52656;52.610;10.236;2023-08-07T04:54:47;8.65;;;5.43;;
49071;SDS011;52656;52.610;10.236;2023-08-07T04:59:37;9.17;;;6.37;;
49071;SDS011;52656;52.610;10.236;2023-08-07T05:04:28;10.40;;;6.15;;
49071;SDS011;52656;52.610;10.236;2023-08-07T05:09:18;8.40;;;6.03;;
49071;SDS011;52656;52.610;10.236;2023-08-07T05:14:09;9.68;;;6.38;;
49071;SDS011;52656;52.610;10.236;2023-08-07T05:19:00;10.67;;;5.90;;
49071;SDS011;52656;52.610;10.236;2023-08-07T05:23:50;8.35;;;5.35;;
49071;SDS011;52656;52.610;10.236;2023-08-07T05:26:20;6.97;;;4.88;;
49071;SDS011;52656;52.610;10.236;2023-08-07T05:31:10;8.68;;;4.30;;
49071;SDS011;52656;52.610;10.236;2023-08-07T05:36:01;7.97;;;4.60;;
49071;SDS011;52656;52.610;10.236;2023-08-07T05:40:52;7.75;;;4.20;;
49071;SDS011;52656;52.610;10.236;2023-08-07T05:45:42;5.80;;;2.78;;
49071;SDS011;52656;52.610;10.236;2023-08-07T05:48:09;5.38;;;2.55;;
49071;SDS011;52656;52.610;10.236;2023-08-07T05:53:00;3.60;;;2.10;;
49071;SDS011;52656;52.610;10.236;2023-08-07T05:57:51;4.70;;;2.30;;
49071;SDS011;52656;52.610;10.236;2023-08-07T06:00:16;2.70;;;2.00;;
49071;SDS011;52656;52.610;10.236;2023-08-07T06:02:44;2.85;;;2.00;;
49071;SDS011;52656;52.610;10.236;2023-08-07T06:07:37;6.35;;;2.40;;
49071;SDS011;52656;52.610;10.236;2023-08-07T06:12:27;2.63;;;1.63;;
49071;SDS011;52656;52.610;10.236;2023-08-07T06:17:18;2.47;;;1.80;;
49071;SDS011;52656;52.610;10.236;2023-08-07T06:22:08;2.17;;;1.75;;
49071;SDS011;52656;52.610;10.236;2023-08-07T06:26:59;6.80;;;2.47;;
49071;SDS011;52656;52.610;10.236;2023-08-07T06:31:50;5.32;;;2.38;;
49071;SDS011;52656;52.610;10.236;2023-08-07T06:36:40;5.20;;;2.83;;
49071;SDS011;52656;52.610;10.236;2023-08-07T06:41:31;5.55;;;3.20;;
49071;SDS011;52656;52.610;10.236;2023-08-07T06:46:21;5.67;;;3.57;;
49071;SDS011;52656;52.610;10.236;2023-08-07T06:48:51;6.45;;;3.45;;
49071;SDS011;52656;52.610;10.236;2023-08-07T06:53:42;5.85;;;3.70;;
49071;SDS011;52656;52.610;10.236;2023-08-07T06:58:32;5.30;;;3.70;;
49071;SDS011;52656;52.610;10.236;2023-08-07T07:03:23;6.43;;;4.30;;
49071;SDS011;52656;52.610;10.236;2023-08-07T07:08:14;7.85;;;3.30;;
49071;SDS011;52656;52.610;10.236;2023-08-07T07:10:39;11.82;;;3.80;;
49071;SDS011;52656;52.610;10.236;2023-08-07T07:15:30;7.45;;;3.50;;
49071;SDS011;52656;52.610;10.236;2023-08-07T07:20:20;8.80;;;4.68;;
49071;SDS011;52656;52.610;10.236;2023-08-07T07:25:11;5.97;;;3.38;;
49071;SDS011;52656;52.610;10.236;2023-08-07T07:27:37;4.63;;;3.17;;
49071;SDS011;52656;52.610;10.236;2023-08-07T07:30:04;7.68;;;3.20;;
49071;SDS011;52656;52.610;10.236;2023-08-07T07:32:30;4.20;;;3.20;;
49071;SDS011;52656;52.610;10.236;2023-08-07T07:34:55;4.43;;;2.85;;
49071;SDS011;52656;52.610;10.236;2023-08-07T07:39:46;6.15;;;3.15;;
49071;SDS011;52656;52.610;10.236;2023-08-07T07:42:11;4.65;;;2.60;;
49071;SDS011;52656;52.610;10.236;2023-08-07T07:44:36;5.97;;;2.65;;
49071;SDS011;52656;52.610;10.236;2023-08-07T07:47:03;5.90;;;2.83;;
49071;SDS011;52656;52.610;10.236;2023-08-07T07:49:30;7.85;;;2.80;;
49071;SDS011;52656;52.610;10.236;2023-08-07T07:51:55;4.93;;;2.55;;
49071;SDS011;52656;52.610;10.236;2023-08-07T07:54:20;8.25;;;2.60;;
49071;SDS011;52656;52.610;10.236;2023-08-07T07:59:11;5.45;;;2.40;;
49071;SDS011;52656;52.610;10.236;2023-08-07T08:01:37;3.67;;;2.10;;
49071;SDS011;52656;52.610;10.236;2023-08-07T08:04:03;3.97;;;1.98;;
49071;SDS011;52656;52.610;10.236;2023-08-07T08:06:29;4.20;;;2.20;;
49071;SDS011;52656;52.610;10.236;2023-08-07T08:08:55;7.43;;;2.20;;
49071;SDS011;52656;52.610;10.236;2023-08-07T08:11:21;4.05;;;1.98;;
49071;SDS011;52656;52.610;10.236;2023-08-07T08:13:46;4.25;;;2.10;;
49071;SDS011;52656;52.610;10.236;2023-08-07T08:16:11;4.13;;;2.20;;
49071;SDS011;52656;52.610;10.236;2023-08-07T08:18:37;5.50;;;3.05;;
49071;SDS011;52656;52.610;10.236;2023-08-07T08:21:02;6.75;;;1.90;;
49071;SDS011;52656;52.610;10.236;2023-08-07T08:23:27;5.78;;;2.20;;
49071;SDS011;52656;52.610;10.236;2023-08-07T08:25:53;3.88;;;1.95;;
49071;SDS011;52656;52.610;10.236;2023-08-07T08:28:18;4.35;;;2.10;;
49071;SDS011;52656;52.610;10.236;2023-08-07T08:30:43;4.88;;;2.53;;
49071;SDS011;52656;52.610;10.236;2023-08-07T08:33:08;6.88;;;1.80;;
49071;SDS011;52656;52.610;10.236;2023-08-07T08:35:37;3.58;;;1.77;;
49071;SDS011;52656;52.610;10.236;2023-08-07T08:38:03;3.83;;;1.70;;
49071;SDS011;52656;52.610;10.236;2023-08-07T08:40:28;3.53;;;1.63;;
49071;SDS011;52656;52.610;10.236;2023-08-07T08:42:54;4.35;;;1.85;;
49071;SDS011;52656;52.610;10.236;2023-08-07T08:45:22;6.63;;;1.75;;
49071;SDS011;52656;52.610;10.236;2023-08-07T08:47:50;3.80;;;1.80;;
49071;SDS011;52656;52.610;10.236;2023-08-07T08:50:19;3.47;;;1.83;;
49071;SDS011;52656;52.610;10.236;2023-08-07T08:52:45;5.45;;;1.75;;
49071;SDS011;52656;52.610;10.236;2023-08-07T08:55:11;5.18;;;2.10;;
49071;SDS011;52656;52.610;10.236;2023-08-07T08:57:38;3.70;;;1.80;;
49071;SDS011;52656;52.610;10.236;2023-08-07T09:00:07;6.95;;;2.20;;
49071;SDS011;52656;52.610;10.236;2023-08-07T09:02:43;4.20;;;1.90;;
49071;SDS011;52656;52.610;10.236;2023-08-07T09:05:18;5.68;;;1.63;;
49071;SDS011;52656;52.610;10.236;2023-08-07T09:07:47;9.43;;;2.08;;
49071;SDS011;52656;52.610;10.236;2023-08-07T09:10:14;8.30;;;2.72;;
49071;SDS011;52656;52.610;10.236;2023-08-07T09:12:41;4.32;;;1.55;;
49071;SDS011;52656;52.610;10.236;2023-08-07T09:15:18;4.18;;;2.35;;
49071;SDS011;52656;52.610;10.236;2023-08-07T09:17:45;8.32;;;2.40;;
49071;SDS011;52656;52.610;10.236;2023-08-07T09:20:11;6.85;;;2.20;;
49071;SDS011;52656;52.610;10.236;2023-08-07T09:22:37;5.60;;;2.28;;
49071;SDS011;52656;52.610;10.236;2023-08-07T09:25:03;7.18;;;2.08;;
49071;SDS011;52656;52.610;10.236;2023-08-07T09:27:28;5.28;;;2.25;;
49071;SDS011;52656;52.610;10.236;2023-08-07T09:29:54;5.18;;;2.00;;
49071;SDS011;52656;52.610;10.236;2023-08-07T09:32:20;6.07;;;2.42;;
49071;SDS011;52656;52.610;10.236;2023-08-07T09:34:49;5.00;;;1.90;;
49071;SDS011;52656;52.610;10.236;2023-08-07T09:37:15;10.85;;;3.13;;
49071;SDS011;52656;52.610;10.236;2023-08-07T09:39:40;6.05;;;2.03;;
49071;SDS011;52656;52.610;10.236;2023-08-07T09:42:15;12.70;;;2.40;;
49071;SDS011;52656;52.610;10.236;2023-08-07T09:44:41;9.17;;;2.30;;
49071;SDS011;52656;52.610;10.236;2023-08-07T09:47:14;4.75;;;2.20;;
49071;SDS011;52656;52.610;10.236;2023-08-07T09:49:41;5.85;;;2.22;;
49071;SDS011;52656;52.610;10.236;2023-08-07T09:52:08;6.97;;;2.20;;
49071;SDS011;52656;52.610;10.236;2023-08-07T09:54:35;12.13;;;2.83;;
49071;SDS011;52656;52.610;10.236;2023-08-07T09:57:01;6.90;;;2.15;;
49071;SDS011;52656;52.610;10.236;2023-08-07T09:59:27;7.90;;;2.45;;
49071;SDS011;52656;52.610;10.236;2023-08-07T10:01:53;17.63;;;3.25;;
49071;SDS011;52656;52.610;10.236;2023-08-07T10:04:20;6.22;;;2.25;;
49071;SDS011;52656;52.610;10.236;2023-08-07T10:06:46;6.45;;;2.85;;
49071;SDS011;52656;52.610;10.236;2023-08-07T10:09:12;8.82;;;2.45;;
49071;SDS011;52656;52.610;10.236;2023-08-07T10:11:38;9.05;;;2.42;;
49071;SDS011;52656;52.610;10.236;2023-08-07T10:14:05;7.13;;;2.20;;
49071;SDS011;52656;52.610;10.236;2023-08-07T10:16:30;7.65;;;2.35;;
49071;SDS011;52656;52.610;10.236;2023-08-07T10:18:57;8.18;;;2.20;;
49071;SDS011;52656;52.610;10.236;2023-08-07T10:21:23;5.68;;;1.88;;
49071;SDS011;52656;52.610;10.236;2023-08-07T10:23:53;5.10;;;1.92;;
49071;SDS011;52656;52.610;10.236;2023-08-07T10:26:19;6.63;;;2.13;;
49071;SDS011;52656;52.610;10.236;2023-08-07T10:28:46;9.85;;;2.15;;
49071;SDS011;52656;52.610;10.236;2023-08-07T10:31:15;7.20;;;2.03;;
49071;SDS011;52656;52.610;10.236;2023-08-07T10:33:41;7.88;;;2.13;;
49071;SDS011;52656;52.610;10.236;2023-08-07T10:36:08;7.35;;;2.25;;
49071;SDS011;52656;52.610;10.236;2023-08-07T10:38:36;9.70;;;1.90;;
49071;SDS011;52656;52.610;10.236;2023-08-07T10:41:05;13.07;;;2.30;;
49071;SDS011;52656;52.610;10.236;2023-08-07T10:43:42;8.13;;;2.38;;
49071;SDS011;52656;52.610;10.236;2023-08-07T10:46:12;5.20;;;1.80;;
49071;SDS011;52656;52.610;10.236;2023-08-07T10:51:05;9.02;;;2.35;;
49071;SDS011;52656;52.610;10.236;2023-08-07T10:56:02;4.90;;;1.80;;
49071;SDS011;52656;52.610;10.236;2023-08-07T10:58:32;8.45;;;1.90;;
49071;SDS011;52656;52.610;10.236;2023-08-07T11:03:59;5.65;;;1.77;;
49071;SDS011;52656;52.610;10.236;2023-08-07T11:06:30;6.78;;;2.30;;
49071;SDS011;52656;52.610;10.236;2023-08-07T11:09:00;6.53;;;1.90;;
49071;SDS011;52656;52.610;10.236;2023-08-07T11:11:40;6.90;;;2.10;;
49071;SDS011;52656;52.610;10.236;2023-08-07T11:14:08;6.07;;;2.10;;
49071;SDS011;52656;52.610;10.236;2023-08-07T11:16:34;8.65;;;2.10;;
49071;SDS011;52656;52.610;10.236;2023-08-07T11:19:00;6.38;;;1.90;;
49071;SDS011;52656;52.610;10.236;2023-08-07T11:21:25;8.70;;;2.40;;
49071;SDS011;52656;52.610;10.236;2023-08-07T11:23:51;7.05;;;2.35;;
49071;SDS011;52656;52.610;10.236;2023-08-07T11:26:16;7.97;;;2.38;;
49071;SDS011;52656;52.610;10.236;2023-08-07T11:28:42;6.25;;;2.05;;
49071;SDS011;52656;52.610;10.236;2023-08-07T11:31:08;6.40;;;2.00;;
49071;SDS011;52656;52.610;10.236;2023-08-07T11:33:33;6.07;;;1.90;;
49071;SDS011;52656;52.610;10.236;2023-08-07T11:36:01;8.25;;;2.22;;
49071;SDS011;52656;52.610;10.236;2023-08-07T11:38:33;6.72;;;2.15;;
49071;SDS011;52656;52.610;10.236;2023-08-07T11:41:06;8.25;;;2.28;;
49071;SDS011;52656;52.610;10.236;2023-08-07T11:43:35;7.07;;;2.00;;
49071;SDS011;52656;52.610;10.236;2023-08-07T11:46:02;11.10;;;2.83;;
49071;SDS011;52656;52.610;10.236;2023-08-07T11:48:32;9.05;;;2.47;;
49071;SDS011;52656;52.610;10.236;2023-08-07T11:51:02;8.68;;;2.50;;
49071;SDS011;52656;52.610;10.236;2023-08-07T11:53:30;10.10;;;2.25;;
49071;SDS011;52656;52.610;10.236;2023-08-07T11:55:58;9.18;;;2.50;;
49071;SDS011;52656;52.610;10.236;2023-08-07T11:58:33;8.88;;;2.63;;
49071;SDS011;52656;52.610;10.236;2023-08-07T12:01:03;8.35;;;2.42;;
49071;SDS011;52656;52.610;10.236;2023-08-07T12:03:34;9.68;;;2.40;;
49071;SDS011;52656;52.610;10.236;2023-08-07T12:06:05;4.95;;;1.90;;
49071;SDS011;52656;52.610;10.236;2023-08-07T12:08:36;7.13;;;2.00;;
49071;SDS011;52656;52.610;10.236;2023-08-07T12:11:04;5.68;;;1.80;;
49071;SDS011;52656;52.610;10.236;2023-08-07T12:13:36;9.35;;;2.25;;
49071;SDS011;52656;52.610;10.236;2023-08-07T12:16:02;6.50;;;1.70;;
49071;SDS011;52656;52.610;10.236;2023-08-07T12:18:31;6.22;;;1.80;;
49071;SDS011;52656;52.610;10.236;2023-08-07T12:20:58;5.47;;;1.77;;
49071;SDS011;52656;52.610;10.236;2023-08-07T12:23:24;5.32;;;1.65;;
49071;SDS011;52656;52.610;10.236;2023-08-07T12:25:50;4.10;;;1.50;;
49071;SDS011;52656;52.610;10.236;2023-08-07T12:28:17;4.60;;;1.67;;
49071;SDS011;52656;52.610;10.236;2023-08-07T12:30:44;3.75;;;1.00;;
49071;SDS011;52656;52.610;10.236;2023-08-07T12:33:11;4.10;;;1.23;;
49071;SDS011;52656;52.610;10.236;2023-08-07T12:35:38;4.85;;;1.23;;
49071;SDS011;52656;52.610;10.236;2023-08-07T12:38:04;3.67;;;1.33;;
49071;SDS011;52656;52.610;10.236;2023-08-07T12:40:30;5.85;;;1.30;;
49071;SDS011;52656;52.610;10.236;2023-08-07T12:42:56;6.00;;;1.90;;
49071;SDS011;52656;52.610;10.236;2023-08-07T12:45:23;4.72;;;1.52;;
49071;SDS011;52656;52.610;10.236;2023-08-07T12:47:48;3.22;;;1.50;;
49071;SDS011;52656;52.610;10.236;2023-08-07T12:50:13;4.10;;;1.30;;
49071;SDS011;52656;52.610;10.236;2023-08-07T12:52:39;6.60;;;1.80;;
49071;SDS011;52656;52.610;10.236;2023-08-07T12:55:04;4.78;;;1.45;;
49071;SDS011;52656;52.610;10.236;2023-08-07T12:57:30;4.35;;;1.50;;
49071;SDS011;52656;52.610;10.236;2023-08-07T12:59:56;4.20;;;1.65;;
49071;SDS011;52656;52.610;10.236;2023-08-07T13:02:21;5.05;;;1.45;;
49071;SDS011;52656;52.610;10.236;2023-08-07T13:04:46;6.22;;;1.42;;
49071;SDS011;52656;52.610;10.236;2023-08-07T13:07:12;6.25;;;1.40;;
49071;SDS011;52656;52.610;10.236;2023-08-07T13:09:37;9.13;;;1.67;;
49071;SDS011;52656;52.610;10.236;2023-08-07T13:12:03;9.10;;;1.85;;
49071;SDS011;52656;52.610;10.236;2023-08-07T13:14:29;6.55;;;2.05;;
49071;SDS011;52656;52.610;10.236;2023-08-07T13:16:54;4.78;;;1.52;;
49071;SDS011;52656;52.610;10.236;2023-08-07T13:19:19;5.32;;;2.13;;
49071;SDS011;52656;52.610;10.236;2023-08-07T13:21:45;4.90;;;1.70;;
49071;SDS011;52656;52.610;10.236;2023-08-07T13:24:10;8.43;;;2.20;;
49071;SDS011;52656;52.610;10.236;2023-08-07T13:26:35;6.68;;;1.70;;
49071;SDS011;52656;52.610;10.236;2023-08-07T13:29:01;5.80;;;1.70;;
49071;SDS011;52656;52.610;10.236;2023-08-07T13:31:27;5.82;;;1.70;;
49071;SDS011;52656;52.610;10.236;2023-08-07T13:33:52;6.45;;;2.00;;
49071;SDS011;52656;52.610;10.236;2023-08-07T13:36:18;5.38;;;1.80;;
49071;SDS011;52656;52.610;10.236;2023-08-07T13:38:43;7.97;;;1.70;;
49071;SDS011;52656;52.610;10.236;2023-08-07T13:41:08;5.25;;;1.75;;
49071;SDS011;52656;52.610;10.236;2023-08-07T13:43:34;5.70;;;1.98;;
49071;SDS011;52656;52.610;10.236;2023-08-07T13:45:59;4.57;;;1.58;;
49071;SDS011;52656;52.610;10.236;2023-08-07T13:48:24;6.20;;;1.60;;
49071;SDS011;52656;52.610;10.236;2023-08-07T13:50:52;5.72;;;1.75;;
49071;SDS011;52656;52.610;10.236;2023-08-07T13:53:18;4.28;;;1.60;;
49071;SDS011;52656;52.610;10.236;2023-08-07T13:55:44;5.38;;;1.55;;
49071;SDS011;52656;52.610;10.236;2023-08-07T13:58:11;3.75;;;1.52;;
49071;SDS011;52656;52.610;10.236;2023-08-07T14:00:37;5.85;;;1.67;;
49071;SDS011;52656;52.610;10.236;2023-08-07T14:03:03;4.10;;;1.48;;
49071;SDS011;52656;52.610;10.236;2023-08-07T14:05:28;5.38;;;1.92;;
49071;SDS011;52656;52.610;10.236;2023-08-07T14:07:54;8.25;;;2.10;;
49071;SDS011;52656;52.610;10.236;2023-08-07T14:10:19;5.32;;;1.90;;
49071;SDS011;52656;52.610;10.236;2023-08-07T14:12:44;9.40;;;1.65;;
49071;SDS011;52656;52.610;10.236;2023-08-07T14:15:10;4.15;;;1.52;;
49071;SDS011;52656;52.610;10.236;2023-08-07T14:17:36;6.15;;;1.80;;
49071;SDS011;52656;52.610;10.236;2023-08-07T14:20:02;6.13;;;2.08;;
49071;SDS011;52656;52.610;10.236;2023-08-07T14:22:29;4.65;;;1.67;;
49071;SDS011;52656;52.610;10.236;2023-08-07T14:24:55;7.40;;;1.75;;
49071;SDS011;52656;52.610;10.236;2023-08-07T14:27:21;5.28;;;1.67;;
49071;SDS011;52656;52.610;10.236;2023-08-07T14:29:46;5.32;;;1.63;;
49071;SDS011;52656;52.610;10.236;2023-08-07T14:32:11;6.55;;;1.65;;
49071;SDS011;52656;52.610;10.236;2023-08-07T14:34:37;5.88;;;1.73;;
49071;SDS011;52656;52.610;10.236;2023-08-07T14:37:02;4.68;;;1.60;;
49071;SDS011;52656;52.610;10.236;2023-08-07T14:39:27;3.97;;;1.73;;
49071;SDS011;52656;52.610;10.236;2023-08-07T14:41:53;5.43;;;1.60;;
49071;SDS011;52656;52.610;10.236;2023-08-07T14:44:20;6.18;;;1.60;;
49071;SDS011;52656;52.610;10.236;2023-08-07T14:46:45;5.35;;;1.98;;
49071;SDS011;52656;52.610;10.236;2023-08-07T14:49:10;7.03;;;2.30;;
49071;SDS011;52656;52.610;10.236;2023-08-07T14:51:36;9.55;;;1.70;;
49071;SDS011;52656;52.610;10.236;2023-08-07T14:54:01;5.40;;;1.73;;
49071;SDS011;52656;52.610;10.236;2023-08-07T14:56:26;7.13;;;1.85;;
49071;SDS011;52656;52.610;10.236;2023-08-07T14:58:51;4.90;;;2.17;;
49071;SDS011;52656;52.610;10.236;2023-08-07T15:01:17;4.30;;;1.90;;
49071;SDS011;52656;52.610;10.236;2023-08-07T15:03:42;4.38;;;1.70;;
49071;SDS011;52656;52.610;10.236;2023-08-07T15:06:08;5.13;;;1.65;;
49071;SDS011;52656;52.610;10.236;2023-08-07T15:08:33;8.75;;;2.22;;
49071;SDS011;52656;52.610;10.236;2023-08-07T15:10:58;4.38;;;1.60;;
49071;SDS011;52656;52.610;10.236;2023-08-07T15:13:24;7.07;;;1.88;;
49071;SDS011;52656;52.610;10.236;2023-08-07T15:15:49;4.75;;;1.65;;
49071;SDS011;52656;52.610;10.236;2023-08-07T15:18:15;4.60;;;1.50;;
49071;SDS011;52656;52.610;10.236;2023-08-07T15:20:40;7.22;;;2.17;;
49071;SDS011;52656;52.610;10.236;2023-08-07T15:23:05;4.10;;;1.67;;
49071;SDS011;52656;52.610;10.236;2023-08-07T15:25:31;9.05;;;1.90;;
49071;SDS011;52656;52.610;10.236;2023-08-07T15:27:56;10.45;;;1.85;;
49071;SDS011;52656;52.610;10.236;2023-08-07T15:30:26;3.78;;;1.52;;
49071;SDS011;52656;52.610;10.236;2023-08-07T15:32:52;5.30;;;1.33;;
49071;SDS011;52656;52.610;10.236;2023-08-07T15:35:18;7.90;;;2.45;;
49071;SDS011;52656;52.610;10.236;2023-08-07T15:37:43;5.18;;;1.90;;
49071;SDS011;52656;52.610;10.236;2023-08-07T15:40:08;3.25;;;1.60;;
49071;SDS011;52656;52.610;10.236;2023-08-07T15:42:34;7.45;;;1.65;;
49071;SDS011;52656;52.610;10.236;2023-08-07T15:44:59;5.78;;;1.67;;
49071;SDS011;52656;52.610;10.236;2023-08-07T15:47:25;6.22;;;1.50;;
49071;SDS011;52656;52.610;10.236;2023-08-07T15:49:50;6.57;;;2.03;;
49071;SDS011;52656;52.610;10.236;2023-08-07T15:52:15;4.15;;;1.63;;
49071;SDS011;52656;52.610;10.236;2023-08-07T15:54:41;4.22;;;1.67;;
49071;SDS011;52656;52.610;10.236;2023-08-07T15:57:08;5.35;;;1.60;;
49071;SDS011;52656;52.610;10.236;2023-08-07T15:59:34;5.47;;;1.83;;
49071;SDS011;52656;52.610;10.236;2023-08-07T16:01:59;5.40;;;1.58;;
49071;SDS011;52656;52.610;10.236;2023-08-07T16:04:24;6.32;;;2.00;;
49071;SDS011;52656;52.610;10.236;2023-08-07T16:06:50;7.60;;;1.67;;
49071;SDS011;52656;52.610;10.236;2023-08-07T16:09:15;7.68;;;1.98;;
49071;SDS011;52656;52.610;10.236;2023-08-07T16:11:40;5.05;;;1.80;;
49071;SDS011;52656;52.610;10.236;2023-08-07T16:14:06;4.90;;;1.70;;
49071;SDS011;52656;52.610;10.236;2023-08-07T16:16:31;5.70;;;1.65;;
49071;SDS011;52656;52.610;10.236;2023-08-07T16:18:56;8.25;;;1.75;;
49071;SDS011;52656;52.610;10.236;2023-08-07T16:21:21;4.28;;;1.50;;
49071;SDS011;52656;52.610;10.236;2023-08-07T16:23:47;6.70;;;1.55;;
49071;SDS011;52656;52.610;10.236;2023-08-07T16:26:12;5.05;;;1.73;;
49071;SDS011;52656;52.610;10.236;2023-08-07T16:28:37;4.18;;;1.55;;
49071;SDS011;52656;52.610;10.236;2023-08-07T16:31:03;3.67;;;1.38;;
49071;SDS011;52656;52.610;10.236;2023-08-07T16:33:28;5.65;;;1.40;;
49071;SDS011;52656;52.610;10.236;2023-08-07T16:35:54;4.63;;;1.50;;
49071;SDS011;52656;52.610;10.236;2023-08-07T16:38:19;4.22;;;1.45;;
49071;SDS011;52656;52.610;10.236;2023-08-07T16:40:45;4.90;;;1.88;;
49071;SDS011;52656;52.610;10.236;2023-08-07T16:43:10;3.92;;;1.63;;
49071;SDS011;52656;52.610;10.236;2023-08-07T16:45:36;4.15;;;1.50;;
49071;SDS011;52656;52.610;10.236;2023-08-07T16:48:02;4.22;;;1.35;;
49071;SDS011;52656;52.610;10.236;2023-08-07T16:50:27;3.70;;;1.67;;
49071;SDS011;52656;52.610;10.236;2023-08-07T16:52:53;5.93;;;1.60;;
49071;SDS011;52656;52.610;10.236;2023-08-07T16:55:19;4.57;;;1.80;;
49071;SDS011;52656;52.610;10.236;2023-08-07T16:57:44;5.25;;;1.83;;
49071;SDS011;52656;52.610;10.236;2023-08-07T17:00:10;6.07;;;2.08;;
49071;SDS011;52656;52.610;10.236;2023-08-07T17:02:36;2.92;;;1.50;;
49071;SDS011;52656;52.610;10.236;2023-08-07T17:05:01;7.20;;;1.70;;
49071;SDS011;52656;52.610;10.236;2023-08-07T17:07:27;4.20;;;1.67;;
49071;SDS011;52656;52.610;10.236;2023-08-07T17:09:52;4.38;;;1.63;;
49071;SDS011;52656;52.610;10.236;2023-08-07T17:12:18;4.50;;;1.70;;
49071;SDS011;52656;52.610;10.236;2023-08-07T17:14:43;4.40;;;1.92;;
49071;SDS011;52656;52.610;10.236;2023-08-07T17:17:08;5.78;;;1.83;;
49071;SDS011;52656;52.610;10.236;2023-08-07T17:19:34;8.73;;;2.25;;
49071;SDS011;52656;52.610;10.236;2023-08-07T17:21:59;7.00;;;1.98;;
49071;SDS011;52656;52.610;10.236;2023-08-07T17:24:24;7.35;;;1.90;;
49071;SDS011;52656;52.610;10.236;2023-08-07T17:26:49;4.43;;;1.98;;
49071;SDS011;52656;52.610;10.236;2023-08-07T17:29:15;5.90;;;1.73;;
49071;SDS011;52656;52.610;10.236;2023-08-07T17:31:40;3.80;;;1.58;;
49071;SDS011;52656;52.610;10.236;2023-08-07T17:34:05;12.40;;;2.20;;
49071;SDS011;52656;52.610;10.236;2023-08-07T17:36:31;5.97;;;2.05;;
49071;SDS011;52656;52.610;10.236;2023-08-07T17:38:56;6.30;;;2.47;;
49071;SDS011;52656;52.610;10.236;2023-08-07T17:41:21;6.13;;;2.15;;
49071;SDS011;52656;52.610;10.236;2023-08-07T17:43:47;6.60;;;2.00;;
49071;SDS011;52656;52.610;10.236;2023-08-07T17:46:13;6.00;;;1.85;;
49071;SDS011;52656;52.610;10.236;2023-08-07T17:48:38;5.50;;;2.13;;